sensor_id;sensor_type;location;lat;lon;timestamp;pressure;altitude;pressure_sealevel;temperature;humidity
42591;BME280;28218;53.342;-6.216;2023-08-31T00:00:00;100768.16;;;16.65;100.00
42591;BME280;28218;53.342;-6.216;2023-08-31T00:02:28;100763.88;;;16.64;100.00
42591;BME280;28218;53.342;-6.216;2023-08-31T00:04:56;100757.97;;;16.61;100.00
42591;BME280;28218;53.342;-6.216;2023-08-31T00:07:25;100753.44;;;16.62;100.00
42591;BME280;28218;53.342;-6.216;2023-08-31T00:09:53;100751.59;;;16.63;100.00
42591;BME280;28218;53.342;-6.216;2023-08-31T00:12:21;100756.94;;;16.63;100.00
42591;BME280;28218;53.342;-6.216;2023-08-31T00:14:51;100752.63;;;16.61;100.00
42591;BME280;28218;53.342;-6.216;2023-08-31T00:17:19;100748.31;;;16.60;100.00
42591;BME280;28218;53.342;-6.216;2023-08-31T00:19:47;100743.84;;;16.61;100.00
42591;BME280;28218;53.342;-6.216;2023-08-31T00:22:16;100731.75;;;16.58;100.00
42591;BME280;28218;53.342;-6.216;2023-08-31T00:24:44;100729.91;;;16.59;100.00
42591;BME280;28218;53.342;-6.216;2023-08-31T00:27:13;100727.47;;;16.57;100.00
42591;BME280;28218;53.342;-6.216;2023-08-31T00:29:42;100732.78;;;16.57;100.00
42591;BME280;28218;53.342;-6.216;2023-08-31T00:32:14;100727.88;;;16.54;100.00
42591;BME280;28218;53.342;-6.216;2023-08-31T00:34:42;100715.59;;;16.53;100.00
42591;BME280;28218;53.342;-6.216;2023-08-31T00:37:10;100718.47;;;16.52;100.00
42591;BME280;28218;53.342;-6.216;2023-08-31T00:39:38;100717.63;;;16.51;100.00
42591;BME280;28218;53.342;-6.216;2023-08-31T00:42:06;100716.81;;;16.51;100.00
42591;BME280;28218;53.342;-6.216;2023-08-31T00:44:34;100710.09;;;16.48;100.00
42591;BME280;28218;53.342;-6.216;2023-08-31T00:47:03;100711.94;;;16.48;100.00
42591;BME280;28218;53.342;-6.216;2023-08-31T00:49:33;100698.22;;;16.44;100.00
42591;BME280;28218;53.342;-6.216;2023-08-31T00:52:02;100693.53;;;16.40;100.00
42591;BME280;28218;53.342;-6.216;2023-08-31T00:54:31;100693.75;;;16.38;100.00
42591;BME280;28218;53.342;-6.216;2023-08-31T00:56:59;100689.03;;;16.40;100.00
42591;BME280;28218;53.342;-6.216;2023-08-31T00:59:27;100692.94;;;16.38;100.00
42591;BME280;28218;53.342;-6.216;2023-08-31T01:02:02;100707.44;;;16.35;100.00
42591;BME280;28218;53.342;-6.216;2023-08-31T01:04:40;100703.16;;;16.34;100.00
42591;BME280;28218;53.342;-6.216;2023-08-31T01:07:14;100708.47;;;16.34;100.00
42591;BME280;28218;53.342;-6.216;2023-08-31T01:09:51;100710.31;;;16.33;100.00
42591;BME280;28218;53.342;-6.216;2023-08-31T01:12:29;100704.38;;;16.31;100.00
42591;BME280;28218;53.342;-6.216;2023-08-31T01:15:04;100701.72;;;16.31;100.00
42591;BME280;28218;53.342;-6.216;2023-08-31T01:17:39;100693.94;;;16.30;100.00
42591;BME280;28218;53.342;-6.216;2023-08-31T01:20:11;100695.59;;;16.31;100.00
42591;BME280;28218;53.342;-6.216;2023-08-31T01:22:48;100702.53;;;16.32;100.00
42591;BME280;28218;53.342;-6.216;2023-08-31T01:25:21;100696.63;;;16.30;100.00
42591;BME280;28218;53.342;-6.216;2023-08-31T01:27:49;100694.97;;;16.29;100.00
42591;BME280;28218;53.342;-6.216;2023-08-31T01:30:18;100692.31;;;16.29;100.00
42591;BME280;28218;53.342;-6.216;2023-08-31T01:32:47;100693.13;;;16.29;100.00
42591;BME280;28218;53.342;-6.216;2023-08-31T01:35:17;100691.50;;;16.28;100.00
42591;BME280;28218;53.342;-6.216;2023-08-31T01:37:49;100696.00;;;16.28;100.00
42591;BME280;28218;53.342;-6.216;2023-08-31T01:40:23;100697.63;;;16.29;100.00
42591;BME280;28218;53.342;-6.216;2023-08-31T01:42:54;100687.81;;;16.29;100.00
42591;BME280;28218;53.342;-6.216;2023-08-31T01:45:23;100691.28;;;16.30;100.00
42591;BME280;28218;53.342;-6.216;2023-08-31T01:47:53;100679.63;;;16.31;100.00
42591;BME280;28218;53.342;-6.216;2023-08-31T01:50:24;100681.25;;;16.32;100.00
42591;BME280;28218;53.342;-6.216;2023-08-31T01:52:52;100670.84;;;16.30;100.00
42591;BME280;28218;53.342;-6.216;2023-08-31T01:55:23;100681.47;;;16.30;100.00
42591;BME280;28218;53.342;-6.216;2023-08-31T01:57:51;100676.38;;;16.29;100.00
42591;BME280;28218;53.342;-6.216;2023-08-31T02:00:19;100674.75;;;16.28;100.00
42591;BME280;28218;53.342;-6.216;2023-08-31T02:02:48;100675.16;;;16.25;100.00
42591;BME280;28218;53.342;-6.216;2023-08-31T02:05:16;100676.34;;;16.22;100.00
42591;BME280;28218;53.342;-6.216;2023-08-31T02:07:45;100670.84;;;16.17;100.00
42591;BME280;28218;53.342;-6.216;2023-08-31T02:10:13;100672.28;;;16.13;100.00
42591;BME280;28218;53.342;-6.216;2023-08-31T02:12:43;100666.38;;;16.11;100.00
42591;BME280;28218;53.342;-6.216;2023-08-31T02:15:11;100658.78;;;16.08;100.00
42591;BME280;28218;53.342;-6.216;2023-08-31T02:17:39;100653.28;;;16.03;100.00
42591;BME280;28218;53.342;-6.216;2023-08-31T02:20:08;100650.41;;;15.98;100.00
42591;BME280;28218;53.342;-6.216;2023-08-31T02:22:37;100651.44;;;15.90;100.00
42591;BME280;28218;53.342;-6.216;2023-08-31T02:25:05;100650.84;;;15.88;100.00
42591;BME280;28218;53.342;-6.216;2023-08-31T02:27:34;100661.84;;;15.85;100.00
42591;BME280;28218;53.342;-6.216;2023-08-31T02:30:04;100655.94;;;15.83;100.00
42591;BME280;28218;53.342;-6.216;2023-08-31T02:32:33;100655.94;;;15.83;100.00
42591;BME280;28218;53.342;-6.216;2023-08-31T02:35:01;100656.75;;;15.83;100.00
42591;BME280;28218;53.342;-6.216;2023-08-31T02:37:30;100655.94;;;15.83;100.00
42591;BME280;28218;53.342;-6.216;2023-08-31T02:39:58;100649.81;;;15.82;100.00
42591;BME280;28218;53.342;-6.216;2023-08-31T02:42:26;100649.00;;;15.82;100.00
42591;BME280;28218;53.342;-6.216;2023-08-31T02:44:54;100651.66;;;15.82;100.00
42591;BME280;28218;53.342;-6.216;2023-08-31T02:47:24;100649.81;;;15.82;100.00
42591;BME280;28218;53.342;-6.216;2023-08-31T02:49:52;100645.31;;;15.83;100.00
42591;BME280;28218;53.342;-6.216;2023-08-31T02:52:20;100654.72;;;15.86;100.00
42591;BME280;28218;53.342;-6.216;2023-08-31T02:54:48;100642.44;;;15.84;100.00
42591;BME280;28218;53.342;-6.216;2023-08-31T02:57:17;100638.56;;;15.87;100.00
42591;BME280;28218;53.342;-6.216;2023-08-31T02:59:49;100622.00;;;15.85;100.00
42591;BME280;28218;53.342;-6.216;2023-08-31T03:02:17;100624.06;;;15.83;100.00
42591;BME280;28218;53.342;-6.216;2023-08-31T03:04:47;100601.56;;;15.79;100.00
42591;BME280;28218;53.342;-6.216;2023-08-31T03:07:16;100594.63;;;15.78;100.00
42591;BME280;28218;53.342;-6.216;2023-08-31T03:09:48;100575.41;;;15.76;100.00
42591;BME280;28218;53.342;-6.216;2023-08-31T03:12:17;100569.91;;;15.71;100.00
42591;BME280;28218;53.342;-6.216;2023-08-31T03:14:46;100574.63;;;15.69;100.00
42591;BME280;28218;53.342;-6.216;2023-08-31T03:17:14;100570.50;;;15.66;100.00
42591;BME280;28218;53.342;-6.216;2023-08-31T03:19:42;100567.25;;;15.57;100.00
42591;BME280;28218;53.342;-6.216;2023-08-31T03:22:11;100562.31;;;15.54;100.00
42591;BME280;28218;53.342;-6.216;2023-08-31T03:24:40;100576.00;;;15.51;100.00
42591;BME280;28218;53.342;-6.216;2023-08-31T03:27:08;100589.28;;;15.51;100.00
42591;BME280;28218;53.342;-6.216;2023-08-31T03:29:36;100593.78;;;15.51;100.00
42591;BME280;28218;53.342;-6.216;2023-08-31T03:32:06;100606.44;;;15.55;100.00
42591;BME280;28218;53.342;-6.216;2023-08-31T03:34:34;100613.00;;;15.59;100.00
42591;BME280;28218;53.342;-6.216;2023-08-31T03:37:02;100603.63;;;15.64;100.00
42591;BME280;28218;53.342;-6.216;2023-08-31T03:39:32;100597.47;;;15.63;100.00
42591;BME280;28218;53.342;-6.216;2023-08-31T03:42:00;100601.38;;;15.67;100.00
42591;BME280;28218;53.342;-6.216;2023-08-31T03:44:29;100593.22;;;15.69;100.00
42591;BME280;28218;53.342;-6.216;2023-08-31T03:46:58;100590.56;;;15.69;100.00
42591;BME280;28218;53.342;-6.216;2023-08-31T03:49:26;100580.75;;;15.69;100.00
42591;BME280;28218;53.342;-6.216;2023-08-31T03:51:54;100582.38;;;15.70;100.00
42591;BME280;28218;53.342;-6.216;2023-08-31T03:54:22;100577.88;;;15.71;100.00
42591;BME280;28218;53.342;-6.216;2023-08-31T03:56:52;100573.19;;;15.73;100.00
42591;BME280;28218;53.342;-6.216;2023-08-31T03:59:20;100578.28;;;15.68;100.00
42591;BME280;28218;53.342;-6.216;2023-08-31T04:01:48;100574.00;;;15.67;100.00
42591;BME280;28218;53.342;-6.216;2023-08-31T04:04:16;100574.41;;;15.64;100.00
42591;BME280;28218;53.342;-6.216;2023-08-31T04:06:44;100564.19;;;15.67;100.00
42591;BME280;28218;53.342;-6.216;2023-08-31T04:09:13;100565.00;;;15.68;100.00
42591;BME280;28218;53.342;-6.216;2023-08-31T04:11:41;100570.94;;;15.70;100.00
42591;BME280;28218;53.342;-6.216;2023-08-31T04:14:10;100561.34;;;15.69;100.00
42591;BME280;28218;53.342;-6.216;2023-08-31T04:16:38;100558.88;;;15.67;100.00
42591;BME280;28218;53.342;-6.216;2023-08-31T04:19:07;100560.72;;;15.67;100.00
42591;BME280;28218;53.342;-6.216;2023-08-31T04:21:35;100558.84;;;15.60;100.00
42591;BME280;28218;53.342;-6.216;2023-08-31T04:24:05;100561.50;;;15.60;100.00
42591;BME280;28218;53.342;-6.216;2023-08-31T04:26:33;100563.56;;;15.58;100.00
42591;BME280;28218;53.342;-6.216;2023-08-31T04:29:02;100566.81;;;15.60;100.00
42591;BME280;28218;53.342;-6.216;2023-08-31T04:31:33;100555.38;;;15.60;100.00
42591;BME280;28218;53.342;-6.216;2023-08-31T04:34:01;100568.25;;;15.63;100.00
42591;BME280;28218;53.342;-6.216;2023-08-31T04:36:30;100564.38;;;15.59;100.00
42591;BME280;28218;53.342;-6.216;2023-08-31T04:38:58;100557.81;;;15.62;100.00
42591;BME280;28218;53.342;-6.216;2023-08-31T04:41:26;100541.06;;;15.61;100.00
42591;BME280;28218;53.342;-6.216;2023-08-31T04:43:55;100550.88;;;15.60;100.00
42591;BME280;28218;53.342;-6.216;2023-08-31T04:46:23;100552.13;;;15.58;100.00
42591;BME280;28218;53.342;-6.216;2023-08-31T04:48:53;100561.50;;;15.60;100.00
42591;BME280;28218;53.342;-6.216;2023-08-31T04:51:28;100546.59;;;15.59;100.00
42591;BME280;28218;53.342;-6.216;2023-08-31T04:53:57;100549.06;;;15.54;100.00
42591;BME280;28218;53.342;-6.216;2023-08-31T04:56:25;100557.63;;;15.56;100.00
42591;BME280;28218;53.342;-6.216;2023-08-31T04:58:53;100553.72;;;15.52;100.00
42591;BME280;28218;53.342;-6.216;2023-08-31T05:01:21;100555.38;;;15.53;100.00
42591;BME280;28218;53.342;-6.216;2023-08-31T05:03:49;100549.06;;;15.54;100.00
42591;BME280;28218;53.342;-6.216;2023-08-31T05:06:20;100555.38;;;15.53;100.00
42591;BME280;28218;53.342;-6.216;2023-08-31T05:08:49;100542.13;;;15.53;100.00
42591;BME280;28218;53.342;-6.216;2023-08-31T05:11:18;100544.75;;;15.53;100.00
42591;BME280;28218;53.342;-6.216;2023-08-31T05:13:46;100528.84;;;15.53;100.00
42591;BME280;28218;53.342;-6.216;2023-08-31T05:16:15;100537.81;;;15.52;100.00
42591;BME280;28218;53.342;-6.216;2023-08-31T05:18:43;100541.91;;;15.48;100.00
42591;BME280;28218;53.342;-6.216;2023-08-31T05:21:11;100530.25;;;15.49;100.00
42591;BME280;28218;53.342;-6.216;2023-08-31T05:23:41;100534.16;;;15.53;100.00
42591;BME280;28218;53.342;-6.216;2023-08-31T05:26:09;100540.28;;;15.54;100.00
42591;BME280;28218;53.342;-6.216;2023-08-31T05:28:38;100533.50;;;15.51;100.00
42591;BME280;28218;53.342;-6.216;2023-08-31T05:31:06;100535.16;;;15.52;100.00
42591;BME280;28218;53.342;-6.216;2023-08-31T05:33:34;100535.16;;;15.52;100.00
42591;BME280;28218;53.342;-6.216;2023-08-31T05:36:03;100527.19;;;15.52;100.00
42591;BME280;28218;53.342;-6.216;2023-08-31T05:38:31;100529.22;;;15.50;100.00
42591;BME280;28218;53.342;-6.216;2023-08-31T05:41:16;100525.56;;;15.51;100.00
42591;BME280;28218;53.342;-6.216;2023-08-31T05:43:44;100525.97;;;15.48;100.00
42591;BME280;28218;53.342;-6.216;2023-08-31T05:46:12;100518.00;;;15.48;100.00
42591;BME280;28218;53.342;-6.216;2023-08-31T05:48:40;100509.41;;;15.46;100.00
42591;BME280;28218;53.342;-6.216;2023-08-31T05:51:09;100507.78;;;15.45;100.00
42591;BME280;28218;53.342;-6.216;2023-08-31T05:53:38;100511.47;;;15.44;100.00
42591;BME280;28218;53.342;-6.216;2023-08-31T05:56:06;100518.81;;;15.42;100.00
42591;BME280;28218;53.342;-6.216;2023-08-31T05:58:36;100511.47;;;15.38;100.00
42591;BME280;28218;53.342;-6.216;2023-08-31T06:01:05;100507.59;;;15.40;100.00
42591;BME280;28218;53.342;-6.216;2023-08-31T06:03:33;100508.41;;;15.41;100.00
42591;BME280;28218;53.342;-6.216;2023-08-31T06:06:02;100511.47;;;15.38;100.00
42591;BME280;28218;53.342;-6.216;2023-08-31T06:08:31;100515.78;;;15.39;100.00
42591;BME280;28218;53.342;-6.216;2023-08-31T06:10:59;100512.47;;;15.37;100.00
42591;BME280;28218;53.342;-6.216;2023-08-31T06:13:27;100515.53;;;15.33;100.00
42591;BME280;28218;53.342;-6.216;2023-08-31T06:15:57;100516.16;;;15.29;100.00
42591;BME280;28218;53.342;-6.216;2023-08-31T06:18:26;100524.34;;;15.34;100.00
42591;BME280;28218;53.342;-6.216;2023-08-31T06:20:54;100525.97;;;15.35;100.00
42591;BME280;28218;53.342;-6.216;2023-08-31T06:23:23;100515.34;;;15.35;100.00
42591;BME280;28218;53.342;-6.216;2023-08-31T06:25:51;100501.88;;;15.37;100.00
42591;BME280;28218;53.342;-6.216;2023-08-31T06:28:19;100504.72;;;15.28;100.00
42591;BME280;28218;53.342;-6.216;2023-08-31T06:30:47;100498.22;;;15.24;100.00
42591;BME280;28218;53.342;-6.216;2023-08-31T06:33:17;100504.34;;;15.25;100.00
42591;BME280;28218;53.342;-6.216;2023-08-31T06:35:47;100502.28;;;15.27;100.00
42591;BME280;28218;53.342;-6.216;2023-08-31T06:38:18;100496.13;;;15.33;100.00
42591;BME280;28218;53.342;-6.216;2023-08-31T06:40:47;100499.44;;;15.35;100.00
42591;BME280;28218;53.342;-6.216;2023-08-31T06:43:15;100494.50;;;15.32;100.00
42591;BME280;28218;53.342;-6.216;2023-08-31T06:45:43;100495.75;;;15.36;100.00
42591;BME280;28218;53.342;-6.216;2023-08-31T06:48:11;100489.22;;;15.39;100.00
42591;BME280;28218;53.342;-6.216;2023-08-31T06:50:41;100480.22;;;15.40;100.00
42591;BME280;28218;53.342;-6.216;2023-08-31T06:53:09;100479.78;;;15.43;100.00
42591;BME280;28218;53.342;-6.216;2023-08-31T06:55:38;100482.28;;;15.44;100.00
42591;BME280;28218;53.342;-6.216;2023-08-31T06:58:06;100479.63;;;15.44;100.00
42591;BME280;28218;53.342;-6.216;2023-08-31T07:00:34;100481.84;;;15.41;100.00
42591;BME280;28218;53.342;-6.216;2023-08-31T07:03:03;100482.28;;;15.44;100.00
42591;BME280;28218;53.342;-6.216;2023-08-31T07:05:34;100475.72;;;15.40;100.00
42591;BME280;28218;53.342;-6.216;2023-08-31T07:08:05;100475.94;;;15.39;100.00
42591;BME280;28218;53.342;-6.216;2023-08-31T07:10:33;100476.34;;;15.42;100.00
42591;BME280;28218;53.342;-6.216;2023-08-31T07:13:03;100474.50;;;15.43;100.00
42591;BME280;28218;53.342;-6.216;2023-08-31T07:15:32;100484.28;;;15.42;100.00
42591;BME280;28218;53.342;-6.216;2023-08-31T07:18:00;100477.78;;;15.45;100.00
42591;BME280;28218;53.342;-6.216;2023-08-31T07:20:28;100483.28;;;15.43;100.00
42591;BME280;28218;53.342;-6.216;2023-08-31T07:22:56;100486.34;;;15.40;100.00
42591;BME280;28218;53.342;-6.216;2023-08-31T07:25:27;100498.63;;;15.34;100.00
42591;BME280;28218;53.342;-6.216;2023-08-31T07:27:56;100517.81;;;15.30;100.00
42591;BME280;28218;53.342;-6.216;2023-08-31T07:30:24;100527.41;;;15.31;100.00
42591;BME280;28218;53.342;-6.216;2023-08-31T07:32:54;100526.78;;;15.36;100.00
42591;BME280;28218;53.342;-6.216;2023-08-31T07:35:22;100527.59;;;15.36;100.00
42591;BME280;28218;53.342;-6.216;2023-08-31T07:37:50;100519.03;;;15.34;100.00
42591;BME280;28218;53.342;-6.216;2023-08-31T07:40:19;100508.19;;;15.29;100.00
42591;BME280;28218;53.342;-6.216;2023-08-31T07:42:48;100492.06;;;15.24;100.00
42591;BME280;28218;53.342;-6.216;2023-08-31T07:45:17;100493.69;;;15.18;100.00
42591;BME280;28218;53.342;-6.216;2023-08-31T07:47:46;100495.75;;;15.16;100.00
42591;BME280;28218;53.342;-6.216;2023-08-31T07:50:14;100496.78;;;15.15;100.00
42591;BME280;28218;53.342;-6.216;2023-08-31T07:52:42;100503.50;;;15.11;100.00
42591;BME280;28218;53.342;-6.216;2023-08-31T07:55:10;100505.56;;;15.16;100.00
42591;BME280;28218;53.342;-6.216;2023-08-31T07:57:39;100497.38;;;15.11;100.00
42591;BME280;28218;53.342;-6.216;2023-08-31T08:00:09;100505.09;;;15.05;100.00
42591;BME280;28218;53.342;-6.216;2023-08-31T08:02:38;100500.81;;;15.04;100.00
42591;BME280;28218;53.342;-6.216;2023-08-31T08:05:06;100499.41;;;15.08;100.00
42591;BME280;28218;53.342;-6.216;2023-08-31T08:07:35;100504.31;;;15.12;100.00
42591;BME280;28218;53.342;-6.216;2023-08-31T08:10:03;100497.38;;;15.17;100.00
42591;BME280;28218;53.342;-6.216;2023-08-31T08:12:36;100492.28;;;15.22;100.00
42591;BME280;28218;53.342;-6.216;2023-08-31T08:15:08;100493.69;;;15.31;100.00
42591;BME280;28218;53.342;-6.216;2023-08-31T08:17:36;100485.34;;;15.34;100.00
42591;BME280;28218;53.342;-6.216;2023-08-31T08:20:06;100481.03;;;15.40;100.00
42591;BME280;28218;53.342;-6.216;2023-08-31T08:22:36;100474.72;;;15.41;100.00
42591;BME280;28218;53.342;-6.216;2023-08-31T08:25:05;100474.09;;;15.39;100.00
42591;BME280;28218;53.342;-6.216;2023-08-31T08:27:33;100468.78;;;15.46;100.00
42591;BME280;28218;53.342;-6.216;2023-08-31T08:30:04;100471.66;;;15.44;100.00
42591;BME280;28218;53.342;-6.216;2023-08-31T08:32:34;100463.69;;;15.44;100.00
42591;BME280;28218;53.342;-6.216;2023-08-31T08:35:03;100463.88;;;15.49;100.00
42591;BME280;28218;53.342;-6.216;2023-08-31T08:37:31;100466.31;;;15.57;100.00
42591;BME280;28218;53.342;-6.216;2023-08-31T08:40:00;100460.78;;;15.59;100.00
42591;BME280;28218;53.342;-6.216;2023-08-31T08:42:30;100464.69;;;15.63;100.00
42591;BME280;28218;53.342;-6.216;2023-08-31T08:45:00;100460.41;;;15.62;100.00
42591;BME280;28218;53.342;-6.216;2023-08-31T08:47:30;100453.06;;;15.64;100.00
42591;BME280;28218;53.342;-6.216;2023-08-31T08:50:01;100460.41;;;15.69;100.00
42591;BME280;28218;53.342;-6.216;2023-08-31T08:52:30;100453.25;;;15.69;100.00
42591;BME280;28218;53.342;-6.216;2023-08-31T08:54:59;100454.06;;;15.70;100.00
42591;BME280;28218;53.342;-6.216;2023-08-31T08:57:30;100452.44;;;15.69;100.00
42591;BME280;28218;53.342;-6.216;2023-08-31T08:59:59;100451.19;;;15.71;100.00
42591;BME280;28218;53.342;-6.216;2023-08-31T09:02:27;100453.66;;;15.73;100.00
42591;BME280;28218;53.342;-6.216;2023-08-31T09:04:55;100451.59;;;15.75;100.00
42591;BME280;28218;53.342;-6.216;2023-08-31T09:07:25;100447.91;;;15.82;100.00
42591;BME280;28218;53.342;-6.216;2023-08-31T09:09:58;100454.44;;;15.87;100.00
42591;BME280;28218;53.342;-6.216;2023-08-31T09:12:27;100453.41;;;15.88;100.00
42591;BME280;28218;53.342;-6.216;2023-08-31T09:14:59;100460.94;;;15.97;100.00
42591;BME280;28218;53.342;-6.216;2023-08-31T09:17:37;100455.22;;;16.00;100.00
42591;BME280;28218;53.342;-6.216;2023-08-31T09:20:06;100445.56;;;15.99;100.00
42591;BME280;28218;53.342;-6.216;2023-08-31T09:22:42;100449.84;;;16.07;100.00
42591;BME280;28218;53.342;-6.216;2023-08-31T09:25:11;100448.22;;;16.06;100.00
42591;BME280;28218;53.342;-6.216;2023-08-31T09:27:40;100448.63;;;16.09;100.00
42591;BME280;28218;53.342;-6.216;2023-08-31T09:30:11;100440.03;;;16.14;100.00
42591;BME280;28218;53.342;-6.216;2023-08-31T09:32:40;100438.56;;;16.18;100.00
42591;BME280;28218;53.342;-6.216;2023-08-31T09:35:11;100430.78;;;16.17;100.00
42591;BME280;28218;53.342;-6.216;2023-08-31T09:37:56;100428.94;;;16.17;100.00
42591;BME280;28218;53.342;-6.216;2023-08-31T09:40:25;100424.66;;;16.16;100.00
42591;BME280;28218;53.342;-6.216;2023-08-31T09:42:53;100423.81;;;16.22;100.00
42591;BME280;28218;53.342;-6.216;2023-08-31T09:45:29;100415.41;;;16.25;100.00
42591;BME280;28218;53.342;-6.216;2023-08-31T09:48:13;100431.78;;;16.29;100.00
42591;BME280;28218;53.342;-6.216;2023-08-31T09:50:44;100435.63;;;16.33;100.00
42591;BME280;28218;53.342;-6.216;2023-08-31T09:53:16;100430.50;;;16.38;100.00
42591;BME280;28218;53.342;-6.216;2023-08-31T09:55:46;100415.53;;;16.44;100.00
42591;BME280;28218;53.342;-6.216;2023-08-31T09:58:17;100415.91;;;16.47;100.00
42591;BME280;28218;53.342;-6.216;2023-08-31T10:00:48;100423.28;;;16.45;100.00
42591;BME280;28218;53.342;-6.216;2023-08-31T10:03:17;100425.06;;;16.51;100.00
42591;BME280;28218;53.342;-6.216;2023-08-31T10:05:47;100414.25;;;16.53;100.00
42591;BME280;28218;53.342;-6.216;2023-08-31T10:08:18;100408.88;;;16.59;100.00
42591;BME280;28218;53.342;-6.216;2023-08-31T10:10:46;100402.16;;;16.57;100.00
42591;BME280;28218;53.342;-6.216;2023-08-31T10:13:14;100411.75;;;16.58;100.00
42591;BME280;28218;53.342;-6.216;2023-08-31T10:15:44;100409.31;;;16.56;100.00
42591;BME280;28218;53.342;-6.216;2023-08-31T10:18:12;100413.59;;;16.57;100.00
42591;BME280;28218;53.342;-6.216;2023-08-31T10:20:42;100412.72;;;16.64;100.00
42591;BME280;28218;53.342;-6.216;2023-08-31T10:23:11;100409.19;;;16.70;100.00
42591;BME280;28218;53.342;-6.216;2023-08-31T10:26:00;100409.19;;;16.70;100.00
42591;BME280;28218;53.342;-6.216;2023-08-31T10:28:39;100399.53;;;16.82;100.00
42591;BME280;28218;53.342;-6.216;2023-08-31T10:31:09;100402.28;;;16.94;100.00
42591;BME280;28218;53.342;-6.216;2023-08-31T10:33:41;100403.06;;;17.01;100.00
42591;BME280;28218;53.342;-6.216;2023-08-31T10:36:11;100405.00;;;17.12;100.00
42591;BME280;28218;53.342;-6.216;2023-08-31T10:38:41;100402.94;;;17.14;100.00
42591;BME280;28218;53.342;-6.216;2023-08-31T10:41:21;100411.09;;;17.19;100.00
42591;BME280;28218;53.342;-6.216;2023-08-31T10:43:51;100415.09;;;17.28;100.00
42591;BME280;28218;53.342;-6.216;2023-08-31T10:46:27;100406.88;;;17.30;100.00
42591;BME280;28218;53.342;-6.216;2023-08-31T10:48:57;100407.84;;;17.35;100.00
42591;BME280;28218;53.342;-6.216;2023-08-31T10:51:27;100406.84;;;17.36;100.00
42591;BME280;28218;53.342;-6.216;2023-08-31T10:54:09;100408.47;;;17.37;100.00
42591;BME280;28218;53.342;-6.216;2023-08-31T10:57:01;100412.16;;;17.36;100.00
42591;BME280;28218;53.342;-6.216;2023-08-31T10:59:50;100411.31;;;17.36;100.00
42591;BME280;28218;53.342;-6.216;2023-08-31T11:02:29;100409.72;;;17.35;100.00
42591;BME280;28218;53.342;-6.216;2023-08-31T11:05:05;100405.56;;;17.39;100.00
42591;BME280;28218;53.342;-6.216;2023-08-31T11:07:34;100409.72;;;17.35;100.00
42591;BME280;28218;53.342;-6.216;2023-08-31T11:10:16;100410.59;;;17.29;100.00
42591;BME280;28218;53.342;-6.216;2023-08-31T11:12:49;100403.03;;;17.26;100.00
42591;BME280;28218;53.342;-6.216;2023-08-31T11:15:19;100410.88;;;17.21;100.00
42591;BME280;28218;53.342;-6.216;2023-08-31T11:17:49;100415.38;;;17.20;100.00
42591;BME280;28218;53.342;-6.216;2023-08-31T11:20:19;100427.00;;;17.26;100.00
42591;BME280;28218;53.342;-6.216;2023-08-31T11:22:49;100419.00;;;17.26;100.00
42591;BME280;28218;53.342;-6.216;2023-08-31T11:25:20;100413.41;;;17.34;100.00
42591;BME280;28218;53.342;-6.216;2023-08-31T11:27:57;100417.00;;;17.46;100.00
42591;BME280;28218;53.342;-6.216;2023-08-31T11:30:26;100417.19;;;17.63;100.00
42591;BME280;28218;53.342;-6.216;2023-08-31T11:32:55;100409.34;;;17.75;100.00
42591;BME280;28218;53.342;-6.216;2023-08-31T11:35:23;100411.66;;;17.83;100.00
42591;BME280;28218;53.342;-6.216;2023-08-31T11:37:55;100406.19;;;17.96;100.00
42591;BME280;28218;53.342;-6.216;2023-08-31T11:40:25;100402.66;;;18.02;100.00
42591;BME280;28218;53.342;-6.216;2023-08-31T11:42:55;100396.41;;;18.08;100.00
42591;BME280;28218;53.342;-6.216;2023-08-31T11:45:23;100399.22;;;18.13;100.00
42591;BME280;28218;53.342;-6.216;2023-08-31T11:47:53;100405.13;;;18.16;100.00
42591;BME280;28218;53.342;-6.216;2023-08-31T11:50:23;100391.22;;;18.13;100.00
42591;BME280;28218;53.342;-6.216;2023-08-31T11:52:52;100397.59;;;18.12;100.00
42591;BME280;28218;53.342;-6.216;2023-08-31T11:55:21;100393.31;;;18.11;100.00
42591;BME280;28218;53.342;-6.216;2023-08-31T11:57:50;100391.03;;;18.27;100.00
42591;BME280;28218;53.342;-6.216;2023-08-31T12:00:20;100388.50;;;18.32;100.00
42591;BME280;28218;53.342;-6.216;2023-08-31T12:02:58;100387.13;;;18.41;100.00
42591;BME280;28218;53.342;-6.216;2023-08-31T12:05:27;100389.94;;;18.46;100.00
42591;BME280;28218;53.342;-6.216;2023-08-31T12:07:55;100396.31;;;18.45;100.00
42591;BME280;28218;53.342;-6.216;2023-08-31T12:10:24;100392.47;;;18.41;100.00
42591;BME280;28218;53.342;-6.216;2023-08-31T12:12:53;100396.25;;;18.33;100.00
42591;BME280;28218;53.342;-6.216;2023-08-31T12:15:30;100399.16;;;18.32;100.00
42591;BME280;28218;53.342;-6.216;2023-08-31T12:17:58;100396.56;;;18.25;100.00
42591;BME280;28218;53.342;-6.216;2023-08-31T12:20:26;100406.91;;;18.22;100.00
42591;BME280;28218;53.342;-6.216;2023-08-31T12:22:55;100406.75;;;18.17;100.00
42591;BME280;28218;53.342;-6.216;2023-08-31T12:25:23;100413.78;;;18.11;100.00
42591;BME280;28218;53.342;-6.216;2023-08-31T12:27:51;100415.97;;;18.02;100.00
42591;BME280;28218;53.342;-6.216;2023-08-31T12:30:20;100419.50;;;17.96;100.00
42591;BME280;28218;53.342;-6.216;2023-08-31T12:32:49;100418.47;;;17.97;100.00
42591;BME280;28218;53.342;-6.216;2023-08-31T12:35:18;100412.00;;;17.93;100.00
42591;BME280;28218;53.342;-6.216;2023-08-31T12:37:48;100423.09;;;17.90;100.00
42591;BME280;28218;53.342;-6.216;2023-08-31T12:40:16;100421.91;;;17.86;100.00
42591;BME280;28218;53.342;-6.216;2023-08-31T12:42:46;100423.09;;;17.90;100.00